sensor_id;sensor_type;location;lat;lon;timestamp;P1;durP1;ratioP1;P2;durP2;ratioP2
23163;SDS011;31429;42.674;23.350;2023-07-31T00:00:19;4.73;;;4.23;;
23163;SDS011;31429;42.674;23.350;2023-07-31T00:01:19;4.67;;;4.37;;
23163;SDS011;31429;42.674;23.350;2023-07-31T00:02:20;5.33;;;4.93;;
23163;SDS011;31429;42.674;23.350;2023-07-31T00:03:22;5.50;;;4.60;;
23163;SDS011;31429;42.674;23.350;2023-07-31T00:04:23;5.40;;;5.00;;
23163;SDS011;31429;42.674;23.350;2023-07-31T00:05:24;5.00;;;4.60;;
23163;SDS011;31429;42.674;23.350;2023-07-31T00:06:24;4.67;;;4.37;;
23163;SDS011;31429;42.674;23.350;2023-07-31T00:07:25;5.17;;;4.77;;
23163;SDS011;31429;42.674;23.350;2023-07-31T00:08:26;4.90;;;4.50;;
23163;SDS011;31429;42.674;23.350;2023-07-31T00:09:26;5.23;;;4.73;;
23163;SDS011;31429;42.674;23.350;2023-07-31T00:10:27;5.20;;;4.73;;
23163;SDS011;31429;42.674;23.350;2023-07-31T00:11:27;4.73;;;4.43;;
23163;SDS011;31429;42.674;23.350;2023-07-31T00:12:28;4.63;;;4.33;;
23163;SDS011;31429;42.674;23.350;2023-07-31T00:13:29;5.53;;;5.03;;
23163;SDS011;31429;42.674;23.350;2023-07-31T00:14:29;5.33;;;4.93;;
23163;SDS011;31429;42.674;23.350;2023-07-31T00:15:30;4.90;;;4.50;;
23163;SDS011;31429;42.674;23.350;2023-07-31T00:16:31;5.33;;;4.83;;
23163;SDS011;31429;42.674;23.350;2023-07-31T00:17:31;4.50;;;4.20;;
23163;SDS011;31429;42.674;23.350;2023-07-31T00:18:33;4.57;;;4.20;;
23163;SDS011;31429;42.674;23.350;2023-07-31T00:19:34;5.10;;;4.70;;
23163;SDS011;31429;42.674;23.350;2023-07-31T00:20:35;5.70;;;5.27;;
23163;SDS011;31429;42.674;23.350;2023-07-31T00:21:35;5.53;;;5.03;;
23163;SDS011;31429;42.674;23.350;2023-07-31T00:22:36;4.57;;;4.13;;
23163;SDS011;31429;42.674;23.350;2023-07-31T00:23:36;5.13;;;4.63;;
23163;SDS011;31429;42.674;23.350;2023-07-31T00:24:37;5.73;;;4.80;;
23163;SDS011;31429;42.674;23.350;2023-07-31T00:25:38;5.23;;;4.77;;
23163;SDS011;31429;42.674;23.350;2023-07-31T00:26:39;5.00;;;4.60;;
23163;SDS011;31429;42.674;23.350;2023-07-31T00:27:40;4.60;;;4.20;;
23163;SDS011;31429;42.674;23.350;2023-07-31T00:28:44;5.80;;;5.20;;
23163;SDS011;31429;42.674;23.350;2023-07-31T00:29:45;4.97;;;4.57;;
23163;SDS011;31429;42.674;23.350;2023-07-31T00:30:45;4.40;;;4.10;;
23163;SDS011;31429;42.674;23.350;2023-07-31T00:31:46;4.93;;;4.53;;
23163;SDS011;31429;42.674;23.350;2023-07-31T00:32:47;5.90;;;5.47;;
23163;SDS011;31429;42.674;23.350;2023-07-31T00:33:49;5.17;;;4.77;;
23163;SDS011;31429;42.674;23.350;2023-07-31T00:34:49;5.40;;;4.90;;
23163;SDS011;31429;42.674;23.350;2023-07-31T00:35:50;5.77;;;5.27;;
23163;SDS011;31429;42.674;23.350;2023-07-31T00:36:51;5.93;;;4.80;;
23163;SDS011;31429;42.674;23.350;2023-07-31T00:37:51;5.73;;;5.27;;
23163;SDS011;31429;42.674;23.350;2023-07-31T00:38:52;5.27;;;4.80;;
23163;SDS011;31429;42.674;23.350;2023-07-31T00:39:53;5.43;;;5.03;;
23163;SDS011;31429;42.674;23.350;2023-07-31T00:40:53;5.57;;;5.07;;
23163;SDS011;31429;42.674;23.350;2023-07-31T00:41:54;6.40;;;5.87;;
23163;SDS011;31429;42.674;23.350;2023-07-31T00:42:54;5.70;;;5.30;;
23163;SDS011;31429;42.674;23.350;2023-07-31T00:43:55;6.23;;;5.70;;
23163;SDS011;31429;42.674;23.350;2023-07-31T00:44:56;6.73;;;5.50;;
23163;SDS011;31429;42.674;23.350;2023-07-31T00:45:56;5.60;;;5.10;;
23163;SDS011;31429;42.674;23.350;2023-07-31T00:46:57;6.80;;;6.20;;
23163;SDS011;31429;42.674;23.350;2023-07-31T00:47:59;5.77;;;5.27;;
23163;SDS011;31429;42.674;23.350;2023-07-31T00:49:01;5.80;;;5.30;;
23163;SDS011;31429;42.674;23.350;2023-07-31T00:50:02;7.23;;;5.50;;
23163;SDS011;31429;42.674;23.350;2023-07-31T00:51:03;7.93;;;5.57;;
23163;SDS011;31429;42.674;23.350;2023-07-31T00:52:04;6.40;;;5.90;;
23163;SDS011;31429;42.674;23.350;2023-07-31T00:53:06;6.23;;;5.73;;
23163;SDS011;31429;42.674;23.350;2023-07-31T00:54:06;6.77;;;6.07;;
23163;SDS011;31429;42.674;23.350;2023-07-31T00:55:27;7.70;;;5.97;;
23163;SDS011;31429;42.674;23.350;2023-07-31T00:56:28;7.60;;;6.87;;
23163;SDS011;31429;42.674;23.350;2023-07-31T00:57:29;7.90;;;7.10;;
23163;SDS011;31429;42.674;23.350;2023-07-31T00:58:30;7.87;;;7.23;;
23163;SDS011;31429;42.674;23.350;2023-07-31T00:59:31;9.00;;;8.20;;
23163;SDS011;31429;42.674;23.350;2023-07-31T01:00:32;10.73;;;9.73;;
23163;SDS011;31429;42.674;23.350;2023-07-31T01:01:33;9.87;;;9.00;;
23163;SDS011;31429;42.674;23.350;2023-07-31T01:02:33;9.90;;;8.90;;
23163;SDS011;31429;42.674;23.350;2023-07-31T01:03:34;9.87;;;9.00;;
23163;SDS011;31429;42.674;23.350;2023-07-31T01:04:36;8.83;;;8.03;;
23163;SDS011;31429;42.674;23.350;2023-07-31T01:05:39;8.77;;;8.00;;
23163;SDS011;31429;42.674;23.350;2023-07-31T01:07:04;10.43;;;9.40;;
23163;SDS011;31429;42.674;23.350;2023-07-31T01:08:12;10.47;;;9.53;;
23163;SDS011;31429;42.674;23.350;2023-07-31T01:09:28;11.07;;;10.07;;
23163;SDS011;31429;42.674;23.350;2023-07-31T01:10:33;10.10;;;9.20;;
23163;SDS011;31429;42.674;23.350;2023-07-31T01:11:38;11.13;;;10.13;;
23163;SDS011;31429;42.674;23.350;2023-07-31T01:12:43;10.83;;;9.77;;
23163;SDS011;31429;42.674;23.350;2023-07-31T01:13:45;11.57;;;10.50;;
23163;SDS011;31429;42.674;23.350;2023-07-31T01:15:01;11.47;;;10.37;;
23163;SDS011;31429;42.674;23.350;2023-07-31T01:16:03;11.70;;;10.60;;
23163;SDS011;31429;42.674;23.350;2023-07-31T01:17:04;11.10;;;10.20;;
23163;SDS011;31429;42.674;23.350;2023-07-31T01:18:05;11.17;;;10.17;;
23163;SDS011;31429;42.674;23.350;2023-07-31T01:19:05;11.33;;;10.40;;
23163;SDS011;31429;42.674;23.350;2023-07-31T01:20:10;11.90;;;10.90;;
23163;SDS011;31429;42.674;23.350;2023-07-31T01:21:18;14.03;;;12.90;;
23163;SDS011;31429;42.674;23.350;2023-07-31T01:22:49;13.67;;;12.47;;
23163;SDS011;31429;42.674;23.350;2023-07-31T01:25:29;12.30;;;11.20;;
23163;SDS011;31429;42.674;23.350;2023-07-31T01:26:41;13.30;;;12.07;;
23163;SDS011;31429;42.674;23.350;2023-07-31T01:27:48;13.17;;;11.83;;
23163;SDS011;31429;42.674;23.350;2023-07-31T01:28:55;14.57;;;13.20;;
23163;SDS011;31429;42.674;23.350;2023-07-31T01:30:03;14.50;;;13.00;;
23163;SDS011;31429;42.674;23.350;2023-07-31T01:31:12;15.97;;;14.60;;
23163;SDS011;31429;42.674;23.350;2023-07-31T01:32:16;15.80;;;14.30;;
23163;SDS011;31429;42.674;23.350;2023-07-31T01:33:19;15.87;;;14.37;;
23163;SDS011;31429;42.674;23.350;2023-07-31T01:34:20;15.33;;;13.80;;
23163;SDS011;31429;42.674;23.350;2023-07-31T01:35:22;16.13;;;14.73;;
23163;SDS011;31429;42.674;23.350;2023-07-31T01:36:23;15.93;;;14.43;;
23163;SDS011;31429;42.674;23.350;2023-07-31T01:37:27;17.17;;;15.70;;
23163;SDS011;31429;42.674;23.350;2023-07-31T01:38:28;16.20;;;14.90;;
23163;SDS011;31429;42.674;23.350;2023-07-31T01:39:29;16.57;;;15.17;;
23163;SDS011;31429;42.674;23.350;2023-07-31T01:40:29;16.80;;;15.30;;
23163;SDS011;31429;42.674;23.350;2023-07-31T01:41:30;18.13;;;16.57;;
23163;SDS011;31429;42.674;23.350;2023-07-31T01:42:32;16.77;;;15.37;;
23163;SDS011;31429;42.674;23.350;2023-07-31T01:43:33;18.07;;;16.47;;
23163;SDS011;31429;42.674;23.350;2023-07-31T01:44:33;24.80;;;18.70;;
23163;SDS011;31429;42.674;23.350;2023-07-31T01:45:34;19.13;;;17.43;;
23163;SDS011;31429;42.674;23.350;2023-07-31T01:46:35;20.23;;;18.30;;
23163;SDS011;31429;42.674;23.350;2023-07-31T01:47:35;21.03;;;19.00;;
23163;SDS011;31429;42.674;23.350;2023-07-31T01:48:36;20.03;;;18.23;;
23163;SDS011;31429;42.674;23.350;2023-07-31T01:49:37;20.73;;;18.83;;
23163;SDS011;31429;42.674;23.350;2023-07-31T01:50:37;21.17;;;19.20;;
23163;SDS011;31429;42.674;23.350;2023-07-31T01:51:38;20.30;;;18.47;;
23163;SDS011;31429;42.674;23.350;2023-07-31T01:52:39;21.10;;;19.20;;
23163;SDS011;31429;42.674;23.350;2023-07-31T01:53:39;20.50;;;18.70;;
23163;SDS011;31429;42.674;23.350;2023-07-31T01:54:40;21.20;;;19.40;;
23163;SDS011;31429;42.674;23.350;2023-07-31T01:55:41;23.80;;;21.40;;
23163;SDS011;31429;42.674;23.350;2023-07-31T01:56:41;23.80;;;21.70;;
23163;SDS011;31429;42.674;23.350;2023-07-31T01:57:43;24.10;;;21.90;;
23163;SDS011;31429;42.674;23.350;2023-07-31T01:58:44;23.40;;;21.20;;
23163;SDS011;31429;42.674;23.350;2023-07-31T01:59:44;25.17;;;22.67;;
23163;SDS011;31429;42.674;23.350;2023-07-31T02:00:45;25.37;;;23.17;;
23163;SDS011;31429;42.674;23.350;2023-07-31T02:01:46;24.50;;;22.30;;
23163;SDS011;31429;42.674;23.350;2023-07-31T02:02:47;26.40;;;23.80;;
23163;SDS011;31429;42.674;23.350;2023-07-31T02:03:47;25.70;;;23.37;;
23163;SDS011;31429;42.674;23.350;2023-07-31T02:04:48;27.37;;;24.47;;
23163;SDS011;31429;42.674;23.350;2023-07-31T02:05:49;26.47;;;23.80;;
23163;SDS011;31429;42.674;23.350;2023-07-31T02:06:50;26.23;;;23.73;;
23163;SDS011;31429;42.674;23.350;2023-07-31T02:07:51;29.93;;;27.03;;
23163;SDS011;31429;42.674;23.350;2023-07-31T02:08:51;29.17;;;26.37;;
23163;SDS011;31429;42.674;23.350;2023-07-31T02:09:52;27.77;;;25.27;;
23163;SDS011;31429;42.674;23.350;2023-07-31T02:10:54;31.03;;;28.03;;
23163;SDS011;31429;42.674;23.350;2023-07-31T02:11:54;29.67;;;26.97;;
23163;SDS011;31429;42.674;23.350;2023-07-31T02:12:56;29.10;;;26.27;;
23163;SDS011;31429;42.674;23.350;2023-07-31T02:13:57;28.97;;;26.27;;
23163;SDS011;31429;42.674;23.350;2023-07-31T02:14:58;30.23;;;27.37;;
23163;SDS011;31429;42.674;23.350;2023-07-31T02:15:59;31.07;;;28.03;;
23163;SDS011;31429;42.674;23.350;2023-07-31T02:16:59;31.00;;;28.10;;
23163;SDS011;31429;42.674;23.350;2023-07-31T02:18:00;30.40;;;27.60;;
23163;SDS011;31429;42.674;23.350;2023-07-31T02:19:01;30.30;;;27.50;;
23163;SDS011;31429;42.674;23.350;2023-07-31T02:20:01;29.37;;;26.57;;
23163;SDS011;31429;42.674;23.350;2023-07-31T02:21:03;28.70;;;25.80;;
23163;SDS011;31429;42.674;23.350;2023-07-31T02:22:03;31.20;;;28.03;;
23163;SDS011;31429;42.674;23.350;2023-07-31T02:23:04;29.57;;;26.77;;
23163;SDS011;31429;42.674;23.350;2023-07-31T02:24:05;31.00;;;28.00;;
23163;SDS011;31429;42.674;23.350;2023-07-31T02:25:06;33.13;;;29.60;;
23163;SDS011;31429;42.674;23.350;2023-07-31T02:26:07;30.03;;;27.13;;
23163;SDS011;31429;42.674;23.350;2023-07-31T02:27:08;30.97;;;28.07;;
23163;SDS011;31429;42.674;23.350;2023-07-31T02:28:10;31.00;;;27.87;;
23163;SDS011;31429;42.674;23.350;2023-07-31T02:29:11;31.90;;;28.80;;
23163;SDS011;31429;42.674;23.350;2023-07-31T02:30:11;31.83;;;28.73;;
23163;SDS011;31429;42.674;23.350;2023-07-31T02:31:12;32.77;;;29.77;;
23163;SDS011;31429;42.674;23.350;2023-07-31T02:32:13;54.70;;;48.73;;
23163;SDS011;31429;42.674;23.350;2023-07-31T02:33:14;33.33;;;30.03;;
23163;SDS011;31429;42.674;23.350;2023-07-31T02:34:34;40.87;;;36.67;;
23163;SDS011;31429;42.674;23.350;2023-07-31T02:35:35;36.00;;;32.47;;
23163;SDS011;31429;42.674;23.350;2023-07-31T02:36:35;39.33;;;35.20;;
23163;SDS011;31429;42.674;23.350;2023-07-31T02:37:36;32.70;;;29.67;;
23163;SDS011;31429;42.674;23.350;2023-07-31T02:38:37;34.17;;;30.73;;
23163;SDS011;31429;42.674;23.350;2023-07-31T02:39:37;35.40;;;32.03;;
23163;SDS011;31429;42.674;23.350;2023-07-31T02:40:39;51.27;;;45.77;;
23163;SDS011;31429;42.674;23.350;2023-07-31T02:42:00;38.37;;;34.33;;
23163;SDS011;31429;42.674;23.350;2023-07-31T02:43:00;54.90;;;49.07;;
23163;SDS011;31429;42.674;23.350;2023-07-31T02:44:02;34.93;;;31.53;;
23163;SDS011;31429;42.674;23.350;2023-07-31T02:45:04;122.03;;;105.70;;
23163;SDS011;31429;42.674;23.350;2023-07-31T02:46:05;68.77;;;60.30;;
23163;SDS011;31429;42.674;23.350;2023-07-31T02:47:06;32.63;;;29.37;;
23163;SDS011;31429;42.674;23.350;2023-07-31T02:48:06;33.00;;;29.80;;
23163;SDS011;31429;42.674;23.350;2023-07-31T02:49:07;94.83;;;84.50;;
23163;SDS011;31429;42.674;23.350;2023-07-31T02:50:08;32.80;;;29.70;;
23163;SDS011;31429;42.674;23.350;2023-07-31T02:51:09;35.03;;;31.73;;
23163;SDS011;31429;42.674;23.350;2023-07-31T02:52:10;60.27;;;54.00;;
23163;SDS011;31429;42.674;23.350;2023-07-31T02:53:10;33.43;;;30.20;;
23163;SDS011;31429;42.674;23.350;2023-07-31T02:54:11;32.90;;;29.77;;
23163;SDS011;31429;42.674;23.350;2023-07-31T02:55:11;39.87;;;35.93;;
23163;SDS011;31429;42.674;23.350;2023-07-31T02:56:12;47.30;;;42.40;;
23163;SDS011;31429;42.674;23.350;2023-07-31T02:57:13;39.47;;;35.57;;
23163;SDS011;31429;42.674;23.350;2023-07-31T02:58:13;34.00;;;30.57;;
23163;SDS011;31429;42.674;23.350;2023-07-31T02:59:16;35.17;;;31.63;;
23163;SDS011;31429;42.674;23.350;2023-07-31T03:00:17;48.87;;;43.80;;
23163;SDS011;31429;42.674;23.350;2023-07-31T03:01:18;43.57;;;39.20;;
23163;SDS011;31429;42.674;23.350;2023-07-31T03:02:18;34.03;;;30.80;;
23163;SDS011;31429;42.674;23.350;2023-07-31T03:03:19;32.93;;;29.93;;
23163;SDS011;31429;42.674;23.350;2023-07-31T03:04:20;44.53;;;39.90;;
23163;SDS011;31429;42.674;23.350;2023-07-31T03:05:20;56.77;;;50.67;;
23163;SDS011;31429;42.674;23.350;2023-07-31T03:06:21;32.47;;;29.37;;
23163;SDS011;31429;42.674;23.350;2023-07-31T03:07:22;31.53;;;28.67;;
23163;SDS011;31429;42.674;23.350;2023-07-31T03:08:22;30.30;;;27.50;;
23163;SDS011;31429;42.674;23.350;2023-07-31T03:09:23;31.43;;;28.53;;
23163;SDS011;31429;42.674;23.350;2023-07-31T03:10:24;32.60;;;29.40;;
23163;SDS011;31429;42.674;23.350;2023-07-31T03:11:24;29.73;;;26.93;;
23163;SDS011;31429;42.674;23.350;2023-07-31T03:12:25;32.40;;;29.23;;
23163;SDS011;31429;42.674;23.350;2023-07-31T03:13:46;32.03;;;28.83;;
23163;SDS011;31429;42.674;23.350;2023-07-31T03:14:48;34.33;;;30.93;;
23163;SDS011;31429;42.674;23.350;2023-07-31T03:15:48;26.07;;;23.43;;
23163;SDS011;31429;42.674;23.350;2023-07-31T03:16:49;30.33;;;27.43;;
23163;SDS011;31429;42.674;23.350;2023-07-31T03:17:49;35.33;;;31.80;;
23163;SDS011;31429;42.674;23.350;2023-07-31T03:18:50;34.60;;;31.00;;
23163;SDS011;31429;42.674;23.350;2023-07-31T03:19:51;45.93;;;41.13;;
23163;SDS011;31429;42.674;23.350;2023-07-31T03:20:51;33.10;;;29.87;;
23163;SDS011;31429;42.674;23.350;2023-07-31T03:21:52;33.03;;;29.87;;
23163;SDS011;31429;42.674;23.350;2023-07-31T03:22:52;30.53;;;27.67;;
23163;SDS011;31429;42.674;23.350;2023-07-31T03:23:53;31.57;;;28.67;;
23163;SDS011;31429;42.674;23.350;2023-07-31T03:24:54;36.13;;;28.80;;
23163;SDS011;31429;42.674;23.350;2023-07-31T03:25:55;38.07;;;34.17;;
23163;SDS011;31429;42.674;23.350;2023-07-31T03:26:57;30.50;;;27.63;;
23163;SDS011;31429;42.674;23.350;2023-07-31T03:27:58;32.00;;;28.77;;
23163;SDS011;31429;42.674;23.350;2023-07-31T03:28:58;31.73;;;28.70;;
23163;SDS011;31429;42.674;23.350;2023-07-31T03:30:00;32.27;;;29.20;;
23163;SDS011;31429;42.674;23.350;2023-07-31T03:31:02;32.30;;;29.17;;
23163;SDS011;31429;42.674;23.350;2023-07-31T03:32:03;30.90;;;27.90;;
23163;SDS011;31429;42.674;23.350;2023-07-31T03:33:04;31.83;;;28.73;;
23163;SDS011;31429;42.674;23.350;2023-07-31T03:34:05;33.50;;;30.30;;
23163;SDS011;31429;42.674;23.350;2023-07-31T03:35:05;32.40;;;29.10;;
23163;SDS011;31429;42.674;23.350;2023-07-31T03:36:06;31.57;;;28.37;;
23163;SDS011;31429;42.674;23.350;2023-07-31T03:37:07;31.00;;;27.93;;
23163;SDS011;31429;42.674;23.350;2023-07-31T03:38:09;31.53;;;28.53;;
23163;SDS011;31429;42.674;23.350;2023-07-31T03:39:10;33.67;;;30.17;;
23163;SDS011;31429;42.674;23.350;2023-07-31T03:40:11;31.87;;;28.87;;
23163;SDS011;31429;42.674;23.350;2023-07-31T03:41:18;33.53;;;29.93;;
23163;SDS011;31429;42.674;23.350;2023-07-31T03:42:18;32.23;;;29.07;;
23163;SDS011;31429;42.674;23.350;2023-07-31T03:43:19;31.17;;;28.17;;
23163;SDS011;31429;42.674;23.350;2023-07-31T03:44:20;31.60;;;28.57;;
23163;SDS011;31429;42.674;23.350;2023-07-31T03:45:23;32.33;;;28.77;;
23163;SDS011;31429;42.674;23.350;2023-07-31T03:46:24;29.27;;;26.57;;
23163;SDS011;31429;42.674;23.350;2023-07-31T03:47:46;30.77;;;27.63;;
23163;SDS011;31429;42.674;23.350;2023-07-31T03:48:50;30.33;;;27.10;;
23163;SDS011;31429;42.674;23.350;2023-07-31T03:49:51;29.53;;;26.83;;
23163;SDS011;31429;42.674;23.350;2023-07-31T03:50:52;29.57;;;26.87;;
23163;SDS011;31429;42.674;23.350;2023-07-31T03:51:53;30.57;;;27.40;;
23163;SDS011;31429;42.674;23.350;2023-07-31T03:52:54;30.27;;;27.17;;
23163;SDS011;31429;42.674;23.350;2023-07-31T03:53:55;30.90;;;28.03;;
23163;SDS011;31429;42.674;23.350;2023-07-31T03:54:56;31.40;;;28.23;;
23163;SDS011;31429;42.674;23.350;2023-07-31T03:55:57;30.50;;;27.57;;
23163;SDS011;31429;42.674;23.350;2023-07-31T03:57:00;31.67;;;28.50;;
23163;SDS011;31429;42.674;23.350;2023-07-31T03:58:21;29.60;;;26.77;;
23163;SDS011;31429;42.674;23.350;2023-07-31T03:59:22;32.67;;;28.13;;
23163;SDS011;31429;42.674;23.350;2023-07-31T04:00:28;31.57;;;28.17;;
23163;SDS011;31429;42.674;23.350;2023-07-31T04:01:29;31.83;;;28.53;;
23163;SDS011;31429;42.674;23.350;2023-07-31T04:02:30;30.43;;;27.50;;
23163;SDS011;31429;42.674;23.350;2023-07-31T04:03:31;31.30;;;28.27;;
23163;SDS011;31429;42.674;23.350;2023-07-31T04:04:32;35.63;;;31.73;;
23163;SDS011;31429;42.674;23.350;2023-07-31T04:05:53;32.43;;;29.23;;
23163;SDS011;31429;42.674;23.350;2023-07-31T04:06:56;32.60;;;29.47;;
23163;SDS011;31429;42.674;23.350;2023-07-31T04:07:57;33.40;;;30.10;;
23163;SDS011;31429;42.674;23.350;2023-07-31T04:08:58;32.60;;;29.40;;
23163;SDS011;31429;42.674;23.350;2023-07-31T04:09:59;34.47;;;30.97;;
23163;SDS011;31429;42.674;23.350;2023-07-31T04:11:00;40.70;;;36.47;;
23163;SDS011;31429;42.674;23.350;2023-07-31T04:12:01;32.83;;;29.63;;
23163;SDS011;31429;42.674;23.350;2023-07-31T04:13:02;34.97;;;31.47;;
23163;SDS011;31429;42.674;23.350;2023-07-31T04:14:04;34.90;;;31.40;;
23163;SDS011;31429;42.674;23.350;2023-07-31T04:15:05;35.17;;;31.43;;
23163;SDS011;31429;42.674;23.350;2023-07-31T04:16:08;36.10;;;32.50;;
23163;SDS011;31429;42.674;23.350;2023-07-31T04:17:09;32.13;;;29.03;;
23163;SDS011;31429;42.674;23.350;2023-07-31T04:18:10;35.57;;;32.03;;
23163;SDS011;31429;42.674;23.350;2023-07-31T04:19:11;33.30;;;30.00;;
23163;SDS011;31429;42.674;23.350;2023-07-31T04:20:16;34.40;;;30.83;;
23163;SDS011;31429;42.674;23.350;2023-07-31T04:21:37;35.47;;;31.77;;
23163;SDS011;31429;42.674;23.350;2023-07-31T04:22:38;35.40;;;31.70;;
23163;SDS011;31429;42.674;23.350;2023-07-31T04:23:40;33.87;;;30.33;;
23163;SDS011;31429;42.674;23.350;2023-07-31T04:24:41;33.67;;;30.23;;
23163;SDS011;31429;42.674;23.350;2023-07-31T04:25:45;33.03;;;29.63;;
23163;SDS011;31429;42.674;23.350;2023-07-31T04:26:46;34.20;;;30.70;;
23163;SDS011;31429;42.674;23.350;2023-07-31T04:27:47;33.37;;;29.83;;
23163;SDS011;31429;42.674;23.350;2023-07-31T04:28:48;33.70;;;30.30;;
23163;SDS011;31429;42.674;23.350;2023-07-31T04:29:49;35.47;;;31.57;;
23163;SDS011;31429;42.674;23.350;2023-07-31T04:30:51;33.10;;;29.90;;
23163;SDS011;31429;42.674;23.350;2023-07-31T04:31:53;32.10;;;29.07;;
23163;SDS011;31429;42.674;23.350;2023-07-31T04:32:54;34.50;;;30.87;;
23163;SDS011;31429;42.674;23.350;2023-07-31T04:33:55;34.27;;;29.80;;
23163;SDS011;31429;42.674;23.350;2023-07-31T04:34:55;31.83;;;28.77;;
23163;SDS011;31429;42.674;23.350;2023-07-31T04:35:56;34.30;;;30.87;;
23163;SDS011;31429;42.674;23.350;2023-07-31T04:36:58;33.70;;;30.53;;
23163;SDS011;31429;42.674;23.350;2023-07-31T04:37:59;32.70;;;29.50;;
23163;SDS011;31429;42.674;23.350;2023-07-31T04:38:59;31.20;;;27.90;;
23163;SDS011;31429;42.674;23.350;2023-07-31T04:40:03;34.13;;;30.30;;
23163;SDS011;31429;42.674;23.350;2023-07-31T04:41:24;35.07;;;30.33;;
23163;SDS011;31429;42.674;23.350;2023-07-31T04:42:28;36.97;;;33.07;;
23163;SDS011;31429;42.674;23.350;2023-07-31T04:43:29;32.83;;;29.53;;
23163;SDS011;31429;42.674;23.350;2023-07-31T04:44:30;35.13;;;31.50;;
23163;SDS011;31429;42.674;23.350;2023-07-31T04:45:52;33.70;;;30.13;;
23163;SDS011;31429;42.674;23.350;2023-07-31T04:46:55;32.97;;;29.63;;
23163;SDS011;31429;42.674;23.350;2023-07-31T04:47:56;34.90;;;31.30;;
23163;SDS011;31429;42.674;23.350;2023-07-31T04:48:57;41.40;;;34.63;;
23163;SDS011;31429;42.674;23.350;2023-07-31T04:49:59;32.23;;;29.10;;
23163;SDS011;31429;42.674;23.350;2023-07-31T04:51:00;33.13;;;29.83;;
23163;SDS011;31429;42.674;23.350;2023-07-31T04:52:02;37.83;;;33.83;;
23163;SDS011;31429;42.674;23.350;2023-07-31T04:53:03;32.50;;;29.13;;
23163;SDS011;31429;42.674;23.350;2023-07-31T04:54:04;32.03;;;28.73;;
23163;SDS011;31429;42.674;23.350;2023-07-31T04:55:05;36.40;;;29.83;;
23163;SDS011;31429;42.674;23.350;2023-07-31T04:56:06;35.27;;;31.63;;
23163;SDS011;31429;42.674;23.350;2023-07-31T04:57:07;32.10;;;29.00;;
23163;SDS011;31429;42.674;23.350;2023-07-31T04:58:08;33.20;;;29.77;;
23163;SDS011;31429;42.674;23.350;2023-07-31T04:59:09;33.40;;;29.90;;
23163;SDS011;31429;42.674;23.350;2023-07-31T05:00:11;34.30;;;30.60;;
23163;SDS011;31429;42.674;23.350;2023-07-31T05:01:12;31.37;;;28.13;;
23163;SDS011;31429;42.674;23.350;2023-07-31T05:02:15;33.63;;;30.20;;
23163;SDS011;31429;42.674;23.350;2023-07-31T05:03:17;31.93;;;28.63;;
23163;SDS011;31429;42.674;23.350;2023-07-31T05:04:17;31.53;;;28.47;;
23163;SDS011;31429;42.674;23.350;2023-07-31T05:05:21;30.67;;;27.47;;
23163;SDS011;31429;42.674;23.350;2023-07-31T05:06:22;31.17;;;28.00;;
23163;SDS011;31429;42.674;23.350;2023-07-31T05:07:25;33.17;;;29.63;;
23163;SDS011;31429;42.674;23.350;2023-07-31T05:08:26;33.23;;;28.50;;
23163;SDS011;31429;42.674;23.350;2023-07-31T05:09:27;32.30;;;28.90;;
23163;SDS011;31429;42.674;23.350;2023-07-31T05:10:30;31.03;;;27.90;;
23163;SDS011;31429;42.674;23.350;2023-07-31T05:11:31;30.50;;;27.37;;
23163;SDS011;31429;42.674;23.350;2023-07-31T05:12:33;30.17;;;26.97;;
23163;SDS011;31429;42.674;23.350;2023-07-31T05:13:33;31.73;;;28.47;;
23163;SDS011;31429;42.674;23.350;2023-07-31T05:14:34;29.57;;;26.60;;
23163;SDS011;31429;42.674;23.350;2023-07-31T05:15:35;30.70;;;27.57;;
23163;SDS011;31429;42.674;23.350;2023-07-31T05:16:36;29.43;;;26.50;;
23163;SDS011;31429;42.674;23.350;2023-07-31T05:17:38;28.80;;;25.90;;
23163;SDS011;31429;42.674;23.350;2023-07-31T05:18:38;27.40;;;24.77;;
23163;SDS011;31429;42.674;23.350;2023-07-31T05:19:39;25.57;;;23.03;;
23163;SDS011;31429;42.674;23.350;2023-07-31T05:20:40;26.87;;;24.27;;
23163;SDS011;31429;42.674;23.350;2023-07-31T05:21:41;28.73;;;26.13;;
23163;SDS011;31429;42.674;23.350;2023-07-31T05:22:41;28.53;;;25.70;;
23163;SDS011;31429;42.674;23.350;2023-07-31T05:23:42;29.83;;;26.63;;
23163;SDS011;31429;42.674;23.350;2023-07-31T05:24:43;28.10;;;25.47;;
23163;SDS011;31429;42.674;23.350;2023-07-31T05:25:43;28.60;;;25.90;;
23163;SDS011;31429;42.674;23.350;2023-07-31T05:26:44;29.40;;;26.47;;
23163;SDS011;31429;42.674;23.350;2023-07-31T05:27:45;32.53;;;29.33;;
23163;SDS011;31429;42.674;23.350;2023-07-31T05:28:45;30.47;;;27.33;;
23163;SDS011;31429;42.674;23.350;2023-07-31T05:29:46;28.57;;;25.57;;
23163;SDS011;31429;42.674;23.350;2023-07-31T05:30:47;26.47;;;23.73;;
23163;SDS011;31429;42.674;23.350;2023-07-31T05:31:47;26.17;;;23.70;;
23163;SDS011;31429;42.674;23.350;2023-07-31T05:32:49;27.17;;;24.03;;
23163;SDS011;31429;42.674;23.350;2023-07-31T05:33:50;26.03;;;23.50;;
23163;SDS011;31429;42.674;23.350;2023-07-31T05:34:51;24.50;;;22.20;;
23163;SDS011;31429;42.674;23.350;2023-07-31T05:35:52;23.10;;;20.87;;
23163;SDS011;31429;42.674;23.350;2023-07-31T05:36:53;21.80;;;20.00;;
23163;SDS011;31429;42.674;23.350;2023-07-31T05:37:53;22.63;;;20.53;;
23163;SDS011;31429;42.674;23.350;2023-07-31T05:38:54;25.10;;;21.00;;
23163;SDS011;31429;42.674;23.350;2023-07-31T05:39:55;28.77;;;21.67;;
23163;SDS011;31429;42.674;23.350;2023-07-31T05:40:55;31.63;;;21.40;;
23163;SDS011;31429;42.674;23.350;2023-07-31T05:41:56;22.87;;;20.67;;
23163;SDS011;31429;42.674;23.350;2023-07-31T05:42:57;21.97;;;19.80;;
23163;SDS011;31429;42.674;23.350;2023-07-31T05:43:57;21.50;;;19.40;;
23163;SDS011;31429;42.674;23.350;2023-07-31T05:44:58;20.37;;;18.53;;
23163;SDS011;31429;42.674;23.350;2023-07-31T05:45:58;24.33;;;21.53;;
23163;SDS011;31429;42.674;23.350;2023-07-31T05:46:59;19.33;;;17.60;;
23163;SDS011;31429;42.674;23.350;2023-07-31T05:48:01;20.30;;;18.43;;
23163;SDS011;31429;42.674;23.350;2023-07-31T05:49:02;20.37;;;17.90;;
23163;SDS011;31429;42.674;23.350;2023-07-31T05:50:03;22.30;;;18.97;;
23163;SDS011;31429;42.674;23.350;2023-07-31T05:51:04;18.47;;;16.87;;
23163;SDS011;31429;42.674;23.350;2023-07-31T05:52:04;19.33;;;17.53;;
23163;SDS011;31429;42.674;23.350;2023-07-31T05:53:06;17.07;;;15.53;;
23163;SDS011;31429;42.674;23.350;2023-07-31T05:54:08;19.93;;;16.90;;
23163;SDS011;31429;42.674;23.350;2023-07-31T05:55:08;20.63;;;18.43;;
23163;SDS011;31429;42.674;23.350;2023-07-31T05:56:09;17.47;;;15.77;;
23163;SDS011;31429;42.674;23.350;2023-07-31T05:57:10;17.47;;;15.60;;
23163;SDS011;31429;42.674;23.350;2023-07-31T05:58:10;17.67;;;16.03;;
23163;SDS011;31429;42.674;23.350;2023-07-31T05:59:12;20.90;;;18.80;;
23163;SDS011;31429;42.674;23.350;2023-07-31T06:00:13;21.70;;;19.53;;
23163;SDS011;31429;42.674;23.350;2023-07-31T06:01:15;22.63;;;20.20;;